Time;durP1;ratioP1;P1;durP2;ratioP2;P2;SDS_P1;SDS_P2;PMS_P1;PMS_P2;Temp;Humidity;BMP_temperature;BMP_pressure;BME280_temperature;BME280_humidity;BME280_pressure;Samples;Min_cycle;Max_cycle;Signal;HPM_P1;HPM_P2
2023/04/30 04:01:39;;;;;;;1999.90;999.90;;;;;;;;;;6318388;22;20207;-68
2023/04/30 04:04:24;;;;;;;1999.90;999.90;;;;;;;;;;6337061;22;20197;-67
2023/04/30 04:07:10;;;;;;;1999.90;999.90;;;;;;;;;;6337273;22;20169;-68
2023/04/30 04:09:55;;;;;;;1999.90;999.90;;;;;;;;;;6336651;22;20637;-68
2023/04/30 04:12:40;;;;;;;1999.90;999.90;;;;;;;;;;6307988;22;20248;-67
2023/04/30 04:15:25;;;;;;;1999.90;999.90;;;;;;;;;;6306988;22;20242;-68
2023/04/30 04:18:11;;;;;;;1999.90;999.90;;;;;;;;;;6306487;22;20442;-67
2023/04/30 04:20:56;;;;;;;1999.90;999.90;;;;;;;;;;6307114;22;20249;-68
2023/04/30 04:23:41;;;;;;;1999.90;999.90;;;;;;;;;;6307116;22;20511;-67
2023/04/30 04:26:27;;;;;;;1999.90;999.90;;;;;;;;;;6306985;22;20502;-69
2023/04/30 04:29:13;;;;;;;1999.90;999.90;;;;;;;;;;6307499;22;20509;-68
2023/04/30 04:31:59;;;;;;;1999.90;999.90;;;;;;;;;;6307036;22;20205;-68
2023/04/30 04:34:46;;;;;;;1999.90;999.90;;;;;;;;;;6307072;22;20169;-68
2023/04/30 04:37:31;;;;;;;1999.90;999.90;;;;;;;;;;6307203;22;20633;-69
2023/04/30 04:40:16;;;;;;;1999.90;999.90;;;;;;;;;;6306879;22;20595;-68
2023/04/30 04:43:00;;;;;;;1999.90;999.90;;;;;;;;;;6307193;22;20720;-68
2023/04/30 04:45:46;;;;;;;1999.90;999.90;;;;;;;;;;6306945;22;20596;-68
2023/04/30 04:48:31;;;;;;;1999.90;999.90;;;;;;;;;;6307145;22;20165;-69
2023/04/30 04:51:17;;;;;;;1999.90;999.90;;;;;;;;;;6306962;22;20204;-69
2023/04/30 04:54:02;;;;;;;1999.90;999.90;;;;;;;;;;6306960;22;20207;-68
2023/04/30 04:56:47;;;;;;;1999.90;999.90;;;;;;;;;;6306117;22;20370;-69
2023/04/30 04:59:33;;;;;;;1999.90;999.90;;;;;;;;;;6307125;22;20749;-68
2023/04/30 05:02:17;;;;;;;1999.90;999.90;;;;;;;;;;6306740;22;20210;-69
2023/04/30 05:05:02;;;;;;;1999.90;999.90;;;;;;;;;;6306764;22;20172;-68
2023/04/30 05:07:51;;;;;;;1999.90;999.90;;;;;;;;;;6306773;22;20207;-69
2023/04/30 05:10:36;;;;;;;1999.90;999.90;;;;;;;;;;6306342;22;20360;-69
2023/04/30 05:13:21;;;;;;;1999.90;999.90;;;;;;;;;;6306775;22;20167;-68
2023/04/30 05:16:06;;;;;;;1999.90;999.90;;;;;;;;;;6306565;22;20510;-68
2023/04/30 05:18:51;;;;;;;1999.90;999.90;;;;;;;;;;6306915;22;20210;-69
2023/04/30 05:21:36;;;;;;;1999.90;999.90;;;;;;;;;;6306517;22;20564;-69
2023/04/30 05:24:22;;;;;;;1999.90;999.90;;;;;;;;;;6306582;22;20668;-69
2023/04/30 05:27:07;;;;;;;1999.90;999.90;;;;;;;;;;6306829;22;20163;-69
2023/04/30 05:29:52;;;;;;;1999.90;999.90;;;;;;;;;;6306478;22;20615;-69
2023/04/30 05:32:37;;;;;;;1999.90;999.90;;;;;;;;;;6307205;22;20199;-69
2023/04/30 05:35:22;;;;;;;1999.90;999.90;;;;;;;;;;6306384;22;20226;-69
2023/04/30 05:38:07;;;;;;;1999.90;999.90;;;;;;;;;;6306533;22;20165;-69
2023/04/30 05:40:53;;;;;;;1999.90;999.90;;;;;;;;;;6306692;22;20489;-68
2023/04/30 05:43:38;;;;;;;1999.90;999.90;;;;;;;;;;6306354;22;20274;-68
2023/04/30 05:46:23;;;;;;;1999.90;999.90;;;;;;;;;;6306386;22;20170;-69
2023/04/30 05:49:08;;;;;;;1999.90;999.90;;;;;;;;;;6306739;22;20165;-68
2023/04/30 05:51:53;;;;;;;1999.90;999.90;;;;;;;;;;6305716;22;20563;-69
2023/04/30 05:54:37;;;;;;;1999.90;999.90;;;;;;;;;;6306272;22;20243;-69
2023/04/30 05:57:24;;;;;;;1999.90;999.90;;;;;;;;;;6306339;22;20245;-68
2023/04/30 06:00:09;;;;;;;1999.90;999.90;;;;;;;;;;6306454;22;20171;-69
2023/04/30 06:02:54;;;;;;;1999.90;999.90;;;;;;;;;;6306116;22;20201;-69
2023/04/30 06:05:40;;;;;;;1999.90;999.90;;;;;;;;;;6306073;22;20175;-68
2023/04/30 06:08:25;;;;;;;1999.90;999.90;;;;;;;;;;6306315;22;20164;-69
2023/04/30 06:11:10;;;;;;;1999.90;999.90;;;;;;;;;;6306036;22;20694;-69
2023/04/30 06:13:57;;;;;;;1999.90;999.90;;;;;;;;;;6306172;22;20217;-68
2023/04/30 06:16:43;;;;;;;1999.90;999.90;;;;;;;;;;6306221;22;20164;-69
2023/04/30 06:19:28;;;;;;;1999.90;999.90;;;;;;;;;;6305275;22;20599;-69
2023/04/30 06:22:13;;;;;;;1999.90;999.90;;;;;;;;;;6305845;22;20210;-69
2023/04/30 06:24:57;;;;;;;1999.90;999.90;;;;;;;;;;6304662;22;20628;-69
2023/04/30 06:27:42;;;;;;;1999.90;999.90;;;;;;;;;;6305629;22;20190;-68
2023/04/30 06:30:30;;;;;;;1999.90;999.90;;;;;;;;;;6305376;22;20168;-69
2023/04/30 06:33:15;;;;;;;1999.90;999.90;;;;;;;;;;6305569;22;20159;-69
2023/04/30 06:36:00;;;;;;;1999.90;999.90;;;;;;;;;;6305699;22;20171;-69
2023/04/30 06:38:46;;;;;;;1999.90;999.90;;;;;;;;;;6305740;22;20167;-69
2023/04/30 06:41:31;;;;;;;1999.90;999.90;;;;;;;;;;6304178;22;20202;-69
2023/04/30 06:44:17;;;;;;;1999.90;999.90;;;;;;;;;;6302240;22;20187;-70
2023/04/30 06:47:03;;;;;;;1999.90;999.90;;;;;;;;;;6302704;22;20681;-69
2023/04/30 06:49:48;;;;;;;1999.90;999.90;;;;;;;;;;6300828;22;20369;-69
2023/04/30 06:52:33;;;;;;;1999.90;999.90;;;;;;;;;;6302697;22;20202;-70
2023/04/30 06:55:18;;;;;;;1999.90;999.90;;;;;;;;;;6301886;22;20163;-70
2023/04/30 06:58:04;;;;;;;1999.90;999.90;;;;;;;;;;6302615;22;20171;-70
2023/04/30 07:00:49;;;;;;;1999.90;999.90;;;;;;;;;;6302245;22;20203;-70
2023/04/30 07:03:36;;;;;;;1999.90;999.90;;;;;;;;;;6302983;22;20187;-70
2023/04/30 07:06:21;;;;;;;1999.90;999.90;;;;;;;;;;6303522;22;20237;-69
2023/04/30 07:09:06;;;;;;;1999.90;999.90;;;;;;;;;;6302891;22;20217;-70
2023/04/30 07:11:51;;;;;;;1999.90;999.90;;;;;;;;;;6302344;22;20206;-69
2023/04/30 07:14:36;;;;;;;1999.90;999.90;;;;;;;;;;6303515;22;20187;-70
2023/04/30 07:17:20;;;;;;;1999.90;999.90;;;;;;;;;;6301942;22;20167;-70
2023/04/30 07:20:08;;;;;;;1999.90;999.90;;;;;;;;;;6302056;22;20167;-69
2023/04/30 07:22:54;;;;;;;1999.90;999.90;;;;;;;;;;6303545;22;20184;-70
2023/04/30 07:25:39;;;;;;;1999.90;999.90;;;;;;;;;;6302204;22;20170;-71
2023/04/30 07:28:24;;;;;;;1999.90;999.90;;;;;;;;;;6302622;22;20210;-70
2023/04/30 07:31:09;;;;;;;1999.90;999.90;;;;;;;;;;6302778;22;20292;-70
2023/04/30 07:33:54;;;;;;;1999.90;999.90;;;;;;;;;;6300318;22;20354;-70
2023/04/30 07:36:41;;;;;;;1999.90;999.90;;;;;;;;;;6302732;22;20187;-70
2023/04/30 07:39:26;;;;;;;1999.90;999.90;;;;;;;;;;6302071;22;20170;-69
2023/04/30 07:42:11;;;;;;;1999.90;999.90;;;;;;;;;;6302343;22;20199;-69
2023/04/30 07:44:56;;;;;;;1999.90;999.90;;;;;;;;;;6302441;22;20246;-70
2023/04/30 07:47:41;;;;;;;1999.90;999.90;;;;;;;;;;6302048;22;20286;-70
2023/04/30 07:50:27;;;;;;;1999.90;999.90;;;;;;;;;;6302101;22;20620;-71
2023/04/30 07:53:13;;;;;;;1999.90;999.90;;;;;;;;;;6301656;22;20164;-70
2023/04/30 07:55:58;;;;;;;1999.90;999.90;;;;;;;;;;6303217;22;20682;-71
2023/04/30 07:58:43;;;;;;;1999.90;999.90;;;;;;;;;;6304147;22;20503;-70
2023/04/30 08:01:28;;;;;;;1999.90;999.90;;;;;;;;;;6303830;22;20207;-70
2023/04/30 08:04:13;;;;;;;1999.90;999.90;;;;;;;;;;6304520;22;20193;-70
2023/04/30 08:06:58;;;;;;;1999.90;999.90;;;;;;;;;;6304675;22;20639;-70
2023/04/30 08:09:44;;;;;;;1999.90;999.90;;;;;;;;;;6304372;22;20506;-69
2023/04/30 08:12:29;;;;;;;1999.90;999.90;;;;;;;;;;6304362;22;20273;-70
2023/04/30 08:15:14;;;;;;;1999.90;999.90;;;;;;;;;;6304573;22;20274;-70
2023/04/30 08:17:59;;;;;;;1999.90;999.90;;;;;;;;;;6306302;22;20507;-70
2023/04/30 08:20:44;;;;;;;1999.90;999.90;;;;;;;;;;6305589;22;20381;-70
2023/04/30 08:23:29;;;;;;;1999.90;999.90;;;;;;;;;;6305534;22;20191;-70
2023/04/30 08:26:15;;;;;;;1999.90;999.90;;;;;;;;;;6305606;22;20647;-69
2023/04/30 08:29:00;;;;;;;1999.90;999.90;;;;;;;;;;6306080;22;20171;-71
2023/04/30 08:31:45;;;;;;;1999.90;999.90;;;;;;;;;;6305284;22;20836;-70
2023/04/30 08:34:30;;;;;;;1999.90;999.90;;;;;;;;;;6306295;22;20265;-70
2023/04/30 08:37:15;;;;;;;1999.90;999.90;;;;;;;;;;6306014;22;20163;-70
2023/04/30 08:40:00;;;;;;;1999.90;999.90;;;;;;;;;;6305752;22;20175;-69
2023/04/30 08:42:50;;;;;;;1999.90;999.90;;;;;;;;;;6305439;22;20171;-71
2023/04/30 08:45:36;;;;;;;1999.90;999.90;;;;;;;;;;6306581;22;20165;-69
2023/04/30 08:48:23;;;;;;;1999.90;999.90;;;;;;;;;;6306942;22;20202;-71
2023/04/30 08:51:08;;;;;;;1999.90;999.90;;;;;;;;;;6306718;22;20273;-70
2023/04/30 08:53:54;;;;;;;1999.90;999.90;;;;;;;;;;6305221;22;20366;-69
2023/04/30 08:56:39;;;;;;;1999.90;999.90;;;;;;;;;;6306780;22;20678;-69
2023/04/30 08:59:26;;;;;;;1999.90;999.90;;;;;;;;;;6307034;22;20168;-70
2023/04/30 09:02:11;;;;;;;1999.90;999.90;;;;;;;;;;6306622;22;20250;-70
2023/04/30 09:04:56;;;;;;;1999.90;999.90;;;;;;;;;;6306540;22;20243;-72
2023/04/30 09:07:42;;;;;;;1999.90;999.90;;;;;;;;;;6304919;22;20819;-69
2023/04/30 09:10:27;;;;;;;1999.90;999.90;;;;;;;;;;6305833;22;20222;-70
2023/04/30 09:13:12;;;;;;;1999.90;999.90;;;;;;;;;;6305886;22;20278;-70
2023/04/30 09:15:59;;;;;;;1999.90;999.90;;;;;;;;;;6306363;22;20164;-69
2023/04/30 09:18:44;;;;;;;1999.90;999.90;;;;;;;;;;6305229;22;20179;-70
2023/04/30 09:21:32;;;;;;;1999.90;999.90;;;;;;;;;;6305857;22;20203;-71
2023/04/30 09:24:17;;;;;;;1999.90;999.90;;;;;;;;;;6305238;22;20222;-70
2023/04/30 09:27:15;;;;;;;1999.90;999.90;;;;;;;;;;6305851;22;20202;-70
2023/04/30 09:30:00;;;;;;;1999.90;999.90;;;;;;;;;;6305257;22;20188;-70
2023/04/30 09:32:56;;;;;;;1999.90;999.90;;;;;;;;;;6305555;22;20207;-69
2023/04/30 09:35:41;;;;;;;1999.90;999.90;;;;;;;;;;6305939;22;20168;-71
2023/04/30 09:38:27;;;;;;;1999.90;999.90;;;;;;;;;;6306208;22;20237;-70
2023/04/30 09:41:22;;;;;;;1999.90;999.90;;;;;;;;;;6305439;22;20242;-70
2023/04/30 09:44:07;;;;;;;1999.90;999.90;;;;;;;;;;6303654;22;20425;-70
2023/04/30 09:46:52;;;;;;;1999.90;999.90;;;;;;;;;;6304114;22;20167;-70
2023/04/30 09:49:40;;;;;;;1999.90;999.90;;;;;;;;;;6305981;22;20290;-69
2023/04/30 09:52:25;;;;;;;1999.90;999.90;;;;;;;;;;6306316;22;20199;-70
2023/04/30 09:55:10;;;;;;;1999.90;999.90;;;;;;;;;;6306291;22;20163;-72
2023/04/30 09:57:55;;;;;;;1999.90;999.90;;;;;;;;;;6305115;22;20488;-71
2023/04/30 10:00:41;;;;;;;1999.90;999.90;;;;;;;;;;6304289;22;20202;-69
2023/04/30 10:03:27;;;;;;;1999.90;999.90;;;;;;;;;;6304644;22;20210;-71
2023/04/30 10:06:15;;;;;;;1999.90;999.90;;;;;;;;;;6305907;22;20247;-70
2023/04/30 10:09:02;;;;;;;1999.90;999.90;;;;;;;;;;6306464;22;20167;-70
2023/04/30 10:11:47;;;;;;;1999.90;999.90;;;;;;;;;;6306063;22;20538;-71
2023/04/30 10:14:33;;;;;;;1999.90;999.90;;;;;;;;;;6305722;22;20207;-69
2023/04/30 10:17:20;;;;;;;1999.90;999.90;;;;;;;;;;6304722;22;20167;-71
2023/04/30 10:20:06;;;;;;;1999.90;999.90;;;;;;;;;;6304711;22;20163;-71
2023/04/30 10:22:53;;;;;;;1999.90;999.90;;;;;;;;;;6304454;22;20188;-70
2023/04/30 10:25:39;;;;;;;1999.90;999.90;;;;;;;;;;6304486;22;20229;-69
2023/04/30 10:28:24;;;;;;;1999.90;999.90;;;;;;;;;;6305258;22;20500;-69
2023/04/30 10:31:10;;;;;;;1999.90;999.90;;;;;;;;;;6304306;22;20199;-69
2023/04/30 10:33:59;;;;;;;1999.90;999.90;;;;;;;;;;6303444;22;20168;-68
2023/04/30 10:36:47;;;;;;;1999.90;999.90;;;;;;;;;;6304879;22;20171;-69
2023/04/30 10:39:35;;;;;;;1999.90;999.90;;;;;;;;;;6303811;22;20172;-68
2023/04/30 10:42:19;;;;;;;1999.90;999.90;;;;;;;;;;6304741;22;20285;-69
2023/04/30 10:45:05;;;;;;;1999.90;999.90;;;;;;;;;;6302584;22;20698;-69
2023/04/30 10:47:50;;;;;;;1999.90;999.90;;;;;;;;;;6304527;22;20544;-69
2023/04/30 10:50:39;;;;;;;1999.90;999.90;;;;;;;;;;6304210;22;20262;-70
2023/04/30 10:53:27;;;;;;;1999.90;999.90;;;;;;;;;;6305039;22;20503;-69
2023/04/30 10:56:13;;;;;;;1999.90;999.90;;;;;;;;;;6304023;22;20499;-70
2023/04/30 10:59:00;;;;;;;1999.90;999.90;;;;;;;;;;6302423;22;20627;-68
2023/04/30 11:02:01;;;;;;;1999.90;999.90;;;;;;;;;;6304079;22;20284;-68
2023/04/30 11:05:05;;;;;;;1999.90;999.90;;;;;;;;;;6305196;22;20547;-69
2023/04/30 11:07:50;;;;;;;1999.90;999.90;;;;;;;;;;6304087;22;20739;-69
2023/04/30 11:10:35;;;;;;;1999.90;999.90;;;;;;;;;;6304704;22;20245;-69
2023/04/30 11:13:22;;;;;;;1999.90;999.90;;;;;;;;;;6304955;22;20171;-67
2023/04/30 11:16:07;;;;;;;1999.90;999.90;;;;;;;;;;6304650;22;20601;-68
2023/04/30 11:18:52;;;;;;;1999.90;999.90;;;;;;;;;;6303456;22;20366;-70
2023/04/30 11:21:40;;;;;;;1999.90;999.90;;;;;;;;;;6304188;22;20536;-68
2023/04/30 11:24:49;;;;;;;1999.90;999.90;;;;;;;;;;6304455;22;20234;-68
2023/04/30 11:27:35;;;;;;;1999.90;999.90;;;;;;;;;;6305581;22;20236;-67
2023/04/30 11:30:22;;;;;;;1999.90;999.90;;;;;;;;;;6305020;22;20187;-66
2023/04/30 11:33:07;;;;;;;1999.90;999.90;;;;;;;;;;6304135;22;20371;-66
2023/04/30 11:35:52;;;;;;;1999.90;999.90;;;;;;;;;;6303683;22;20160;-67
2023/04/30 11:38:37;;;;;;;1999.90;999.90;;;;;;;;;;6304613;22;20612;-66
2023/04/30 11:41:26;;;;;;;1999.90;999.90;;;;;;;;;;6305272;22;20199;-68
2023/04/30 11:44:22;;;;;;;1999.90;999.90;;;;;;;;;;6305165;22;20188;-68
2023/04/30 11:47:08;;;;;;;1999.90;999.90;;;;;;;;;;6305307;22;20163;-69
2023/04/30 11:49:53;;;;;;;1999.90;999.90;;;;;;;;;;6305567;22;20167;-68
2023/04/30 11:52:38;;;;;;;1999.90;999.90;;;;;;;;;;6307355;22;20706;-66
2023/04/30 11:55:24;;;;;;;1999.90;999.90;;;;;;;;;;6307034;22;20279;-69
2023/04/30 11:58:09;;;;;;;1999.90;999.90;;;;;;;;;;6307138;22;20215;-66
2023/04/30 12:00:54;;;;;;;1999.90;999.90;;;;;;;;;;6306315;22;20444;-68
2023/04/30 12:03:44;;;;;;;1999.90;999.90;;;;;;;;;;6307123;22;20175;-67
2023/04/30 12:06:29;;;;;;;1999.90;999.90;;;;;;;;;;6307051;22;20179;-68
2023/04/30 12:09:14;;;;;;;1999.90;999.90;;;;;;;;;;6305744;22;20225;-68
2023/04/30 12:11:59;;;;;;;1999.90;999.90;;;;;;;;;;6307081;22;20250;-68
2023/04/30 12:14:44;;;;;;;1999.90;999.90;;;;;;;;;;6305843;22;20240;-68
2023/04/30 12:17:33;;;;;;;1999.90;999.90;;;;;;;;;;6306480;22;20405;-67
2023/04/30 12:20:20;;;;;;;1999.90;999.90;;;;;;;;;;6307204;22;20164;-68
2023/04/30 12:23:05;;;;;;;1999.90;999.90;;;;;;;;;;6307008;22;20499;-66
2023/04/30 12:25:51;;;;;;;1999.90;999.90;;;;;;;;;;6306066;22;20191;-68
2023/04/30 12:28:36;;;;;;;1999.90;999.90;;;;;;;;;;6307182;22;20179;-66
2023/04/30 12:31:21;;;;;;;1999.90;999.90;;;;;;;;;;6307016;22;20288;-68
2023/04/30 12:34:07;;;;;;;1999.90;999.90;;;;;;;;;;6307147;22;20167;-67
2023/04/30 12:36:53;;;;;;;1999.90;999.90;;;;;;;;;;6307413;22;20605;-68
2023/04/30 12:39:38;;;;;;;1999.90;999.90;;;;;;;;;;6307080;22;20598;-68
2023/04/30 12:42:23;;;;;;;1999.90;999.90;;;;;;;;;;6306990;22;20529;-68
2023/04/30 12:45:09;;;;;;;1999.90;999.90;;;;;;;;;;6306823;22;20528;-68
2023/04/30 12:47:54;;;;;;;1999.90;999.90;;;;;;;;;;6307088;22;20166;-68
2023/04/30 12:50:39;;;;;;;1999.90;999.90;;;;;;;;;;6305231;22;20373;-66
2023/04/30 12:53:26;;;;;;;1999.90;999.90;;;;;;;;;;6307425;22;20643;-68
2023/04/30 12:56:14;;;;;;;1999.90;999.90;;;;;;;;;;6306702;22;20214;-67
2023/04/30 12:58:58;;;;;;;1999.90;999.90;;;;;;;;;;6306948;22;20506;-68
2023/04/30 13:01:46;;;;;;;1999.90;999.90;;;;;;;;;;6306611;22;20212;-68
2023/04/30 13:04:31;;;;;;;1999.90;999.90;;;;;;;;;;6305339;22;20403;-68
2023/04/30 13:07:16;;;;;;;1999.90;999.90;;;;;;;;;;6307405;22;20167;-68
2023/04/30 13:10:03;;;;;;;1999.90;999.90;;;;;;;;;;6306710;22;20167;-68
2023/04/30 13:12:48;;;;;;;1999.90;999.90;;;;;;;;;;6306740;22;20174;-68
2023/04/30 13:15:33;;;;;;;1999.90;999.90;;;;;;;;;;6306558;22;20167;-68
2023/04/30 13:18:18;;;;;;;1999.90;999.90;;;;;;;;;;6306838;22;20168;-68
2023/04/30 13:21:03;;;;;;;1999.90;999.90;;;;;;;;;;6306501;22;20203;-68
2023/04/30 13:23:48;;;;;;;1999.90;999.90;;;;;;;;;;6306758;22;20167;-68
2023/04/30 13:26:35;;;;;;;1999.90;999.90;;;;;;;;;;6306442;22;20188;-68
2023/04/30 13:29:20;;;;;;;1999.90;999.90;;;;;;;;;;6306607;22;20206;-68
2023/04/30 13:32:05;;;;;;;1999.90;999.90;;;;;;;;;;6306530;22;20203;-68
2023/04/30 13:34:53;;;;;;;1999.90;999.90;;;;;;;;;;6305541;22;20452;-68
2023/04/30 13:37:38;;;;;;;1999.90;999.90;;;;;;;;;;6306963;22;20541;-68
2023/04/30 13:40:23;;;;;;;1999.90;999.90;;;;;;;;;;6306287;22;20181;-68
2023/04/30 13:43:09;;;;;;;1999.90;999.90;;;;;;;;;;6306783;22;20211;-67
2023/04/30 13:45:54;;;;;;;1999.90;999.90;;;;;;;;;;6306124;22;20651;-68
2023/04/30 13:48:39;;;;;;;1999.90;999.90;;;;;;;;;;6306032;22;20396;-68
2023/04/30 13:51:25;;;;;;;1999.90;999.90;;;;;;;;;;6306137;22;20273;-68
2023/04/30 13:54:10;;;;;;;1999.90;999.90;;;;;;;;;;6306355;22;20168;-68
2023/04/30 13:56:55;;;;;;;1999.90;999.90;;;;;;;;;;6306250;22;20494;-68
2023/04/30 13:59:42;;;;;;;1999.90;999.90;;;;;;;;;;6306283;22;20163;-68
2023/04/30 14:02:27;;;;;;;1999.90;999.90;;;;;;;;;;6306142;22;20207;-68
2023/04/30 14:05:12;;;;;;;1999.90;999.90;;;;;;;;;;6305899;22;20190;-68
2023/04/30 14:07:57;;;;;;;1999.90;999.90;;;;;;;;;;6306448;22;20214;-68
2023/04/30 14:10:42;;;;;;;1999.90;999.90;;;;;;;;;;6305972;22;20204;-68
2023/04/30 14:13:27;;;;;;;1999.90;999.90;;;;;;;;;;6305901;22;20248;-68
2023/04/30 14:16:13;;;;;;;1999.90;999.90;;;;;;;;;;6305989;22;20243;-68
2023/04/30 14:18:58;;;;;;;1999.90;999.90;;;;;;;;;;6306169;22;20675;-68
2023/04/30 14:21:43;;;;;;;1999.90;999.90;;;;;;;;;;6304195;22;20453;-68
2023/04/30 14:24:28;;;;;;;1999.90;999.90;;;;;;;;;;6306277;22;20172;-67
2023/04/30 14:27:13;;;;;;;1999.90;999.90;;;;;;;;;;6306178;22;20168;-68
2023/04/30 14:29:58;;;;;;;1999.90;999.90;;;;;;;;;;6305905;22;20207;-68
2023/04/30 14:32:44;;;;;;;1999.90;999.90;;;;;;;;;;6305894;22;20225;-68
2023/04/30 14:35:29;;;;;;;1999.90;999.90;;;;;;;;;;6304558;22;20421;-68
2023/04/30 14:38:14;;;;;;;1999.90;999.90;;;;;;;;;;6305962;22;20213;-68
2023/04/30 14:40:59;;;;;;;1999.90;999.90;;;;;;;;;;6305761;22;20538;-67
2023/04/30 14:43:44;;;;;;;1999.90;999.90;;;;;;;;;;6306038;22;20169;-68
2023/04/30 14:46:28;;;;;;;1999.90;999.90;;;;;;;;;;6305774;22;20192;-67
2023/04/30 14:49:15;;;;;;;1999.90;999.90;;;;;;;;;;6306111;22;20167;-68
2023/04/30 14:51:59;;;;;;;1999.90;999.90;;;;;;;;;;6305840;22;20740;-68
2023/04/30 14:54:44;;;;;;;1999.90;999.90;;;;;;;;;;6305483;22;20172;-67
2023/04/30 14:57:29;;;;;;;1999.90;999.90;;;;;;;;;;6305913;22;20177;-68
2023/04/30 15:00:16;;;;;;;1999.90;999.90;;;;;;;;;;6305780;22;20227;-68
2023/04/30 15:03:01;;;;;;;1999.90;999.90;;;;;;;;;;6306234;22;20606;-68
2023/04/30 15:05:48;;;;;;;1999.90;999.90;;;;;;;;;;6305706;22;20203;-68
2023/04/30 15:08:33;;;;;;;1999.90;999.90;;;;;;;;;;6304557;22;20374;-68
2023/04/30 15:11:18;;;;;;;1999.90;999.90;;;;;;;;;;6305539;22;20203;-67
2023/04/30 15:14:03;;;;;;;1999.90;999.90;;;;;;;;;;6305872;22;20233;-67
2023/04/30 15:16:48;;;;;;;1999.90;999.90;;;;;;;;;;6305544;22;20164;-68
2023/04/30 15:19:33;;;;;;;1999.90;999.90;;;;;;;;;;6305594;22;20168;-66
2023/04/30 15:22:21;;;;;;;1999.90;999.90;;;;;;;;;;6305300;22;20370;-68
2023/04/30 15:25:06;;;;;;;1999.90;999.90;;;;;;;;;;6306066;22;20370;-68
2023/04/30 15:27:51;;;;;;;1999.90;999.90;;;;;;;;;;6307731;22;20167;-67
2023/04/30 15:30:37;;;;;;;1999.90;999.90;;;;;;;;;;6307674;22;20206;-68
2023/04/30 15:33:23;;;;;;;1999.90;999.90;;;;;;;;;;6307753;22;20617;-68
2023/04/30 15:36:08;;;;;;;1999.90;999.90;;;;;;;;;;6307623;22;20213;-68
2023/04/30 15:38:54;;;;;;;1999.90;999.90;;;;;;;;;;6307673;22;20234;-68
2023/04/30 15:41:40;;;;;;;1999.90;999.90;;;;;;;;;;6307480;22;20299;-68
2023/04/30 15:44:25;;;;;;;1999.90;999.90;;;;;;;;;;6308182;22;20210;-68
2023/04/30 15:47:11;;;;;;;1999.90;999.90;;;;;;;;;;6309650;22;20218;-68
2023/04/30 15:49:56;;;;;;;1999.90;999.90;;;;;;;;;;6309383;22;20167;-66
2023/04/30 15:52:41;;;;;;;1999.90;999.90;;;;;;;;;;6309140;22;20199;-68
2023/04/30 15:55:27;;;;;;;1999.90;999.90;;;;;;;;;;6307294;22;20238;-68
2023/04/30 15:58:12;;;;;;;1999.90;999.90;;;;;;;;;;6307815;22;20179;-68
2023/04/30 16:00:57;;;;;;;1999.90;999.90;;;;;;;;;;6307193;22;20257;-68
2023/04/30 16:03:42;;;;;;;1999.90;999.90;;;;;;;;;;6307520;22;20240;-68
2023/04/30 16:06:28;;;;;;;1999.90;999.90;;;;;;;;;;6307119;22;20581;-67
2023/04/30 16:09:16;;;;;;;1999.90;999.90;;;;;;;;;;6307931;22;20166;-68
2023/04/30 16:12:02;;;;;;;1999.90;999.90;;;;;;;;;;6306480;22;20370;-68
2023/04/30 16:14:47;;;;;;;1999.90;999.90;;;;;;;;;;6307816;22;20625;-68
2023/04/30 16:17:32;;;;;;;1999.90;999.90;;;;;;;;;;6307562;22;20202;-67
2023/04/30 16:20:17;;;;;;;1999.90;999.90;;;;;;;;;;6307740;22;20647;-68
2023/04/30 16:23:03;;;;;;;1999.90;999.90;;;;;;;;;;6307789;22;20167;-68
2023/04/30 16:25:48;;;;;;;1999.90;999.90;;;;;;;;;;6307394;22;20188;-67
2023/04/30 16:28:34;;;;;;;1999.90;999.90;;;;;;;;;;6307430;22;20239;-68
2023/04/30 16:31:22;;;;;;;1999.90;999.90;;;;;;;;;;6307083;22;20584;-68
2023/04/30 16:34:10;;;;;;;1999.90;999.90;;;;;;;;;;6307195;22;20509;-68
2023/04/30 16:36:55;;;;;;;1999.90;999.90;;;;;;;;;;6306793;22;20246;-68
2023/04/30 16:39:40;;;;;;;1999.90;999.90;;;;;;;;;;6307096;22;20202;-67
2023/04/30 16:42:25;;;;;;;1999.90;999.90;;;;;;;;;;6307125;22;20710;-68
2023/04/30 16:45:12;;;;;;;1999.90;999.90;;;;;;;;;;6307150;22;20171;-68
2023/04/30 16:47:57;;;;;;;1999.90;999.90;;;;;;;;;;6307016;22;20564;-68
2023/04/30 16:50:41;;;;;;;1999.90;999.90;;;;;;;;;;6306889;22;20279;-68
2023/04/30 16:53:26;;;;;;;1999.90;999.90;;;;;;;;;;6306918;22;20183;-68
2023/04/30 16:56:11;;;;;;;1999.90;999.90;;;;;;;;;;6307023;22;20159;-68
2023/04/30 16:58:56;;;;;;;1999.90;999.90;;;;;;;;;;6307260;22;20168;-68
2023/04/30 17:01:42;;;;;;;1999.90;999.90;;;;;;;;;;6304904;22;20432;-68
2023/04/30 17:04:27;;;;;;;1999.90;999.90;;;;;;;;;;6306721;22;20237;-65
2023/04/30 17:07:12;;;;;;;1999.90;999.90;;;;;;;;;;6306763;22;20648;-68
2023/04/30 17:09:57;;;;;;;1999.90;999.90;;;;;;;;;;6306851;22;20677;-68
2023/04/30 17:12:43;;;;;;;1999.90;999.90;;;;;;;;;;6306813;22;20246;-68
2023/04/30 17:15:28;;;;;;;1999.90;999.90;;;;;;;;;;6306567;22;20171;-68
2023/04/30 17:18:14;;;;;;;1999.90;999.90;;;;;;;;;;6307267;22;20240;-68
2023/04/30 17:20:59;;;;;;;1999.90;999.90;;;;;;;;;;6306809;22;20203;-68
2023/04/30 17:23:44;;;;;;;1999.90;999.90;;;;;;;;;;6307009;22;20171;-68
2023/04/30 17:26:30;;;;;;;1999.90;999.90;;;;;;;;;;6306523;22;20640;-68
2023/04/30 17:29:15;;;;;;;1999.90;999.90;;;;;;;;;;6306668;22;20166;-67
2023/04/30 17:32:00;;;;;;;1999.90;999.90;;;;;;;;;;6306560;22;20203;-68
2023/04/30 17:34:47;;;;;;;1999.90;999.90;;;;;;;;;;6306507;22;20278;-68
2023/04/30 17:37:32;;;;;;;1999.90;999.90;;;;;;;;;;6306606;22;20206;-68
2023/04/30 17:40:17;;;;;;;1999.90;999.90;;;;;;;;;;6306504;22;20214;-68
2023/04/30 17:43:01;;;;;;;1999.90;999.90;;;;;;;;;;6306593;22;20167;-68
2023/04/30 17:45:46;;;;;;;1999.90;999.90;;;;;;;;;;6306211;22;20211;-68
2023/04/30 17:48:31;;;;;;;1999.90;999.90;;;;;;;;;;6306013;22;20247;-68
2023/04/30 17:51:18;;;;;;;1999.90;999.90;;;;;;;;;;6306221;22;20198;-67
2023/04/30 17:54:04;;;;;;;1999.90;999.90;;;;;;;;;;6306350;22;20167;-68
2023/04/30 17:56:49;;;;;;;1999.90;999.90;;;;;;;;;;6306206;22;20291;-68
2023/04/30 17:59:34;;;;;;;1999.90;999.90;;;;;;;;;;6306493;22;20202;-67
2023/04/30 18:02:19;;;;;;;1999.90;999.90;;;;;;;;;;6306245;22;20280;-68
2023/04/30 18:05:04;;;;;;;1999.90;999.90;;;;;;;;;;6306030;22;20194;-68
2023/04/30 18:07:51;;;;;;;1999.90;999.90;;;;;;;;;;6306162;22;20190;-68
2023/04/30 18:10:36;;;;;;;1999.90;999.90;;;;;;;;;;6305998;22;20167;-68
2023/04/30 18:13:21;;;;;;;1999.90;999.90;;;;;;;;;;6306236;22;20168;-67
2023/04/30 18:16:06;;;;;;;1999.90;999.90;;;;;;;;;;6306018;22;20237;-69
2023/04/30 18:18:51;;;;;;;1999.90;999.90;;;;;;;;;;6306111;22;20166;-68
2023/04/30 18:21:36;;;;;;;1999.90;999.90;;;;;;;;;;6306044;22;20203;-68
2023/04/30 18:24:26;;;;;;;1999.90;999.90;;;;;;;;;;6306174;22;20163;-69
2023/04/30 18:27:11;;;;;;;1999.90;999.90;;;;;;;;;;6306002;22;20188;-68
2023/04/30 18:29:56;;;;;;;1999.90;999.90;;;;;;;;;;6306071;22;20735;-68
2023/04/30 18:32:42;;;;;;;1999.90;999.90;;;;;;;;;;6306110;22;20199;-67
2023/04/30 18:35:27;;;;;;;1999.90;999.90;;;;;;;;;;6305098;22;20249;-68
2023/04/30 18:38:12;;;;;;;1999.90;999.90;;;;;;;;;;6305419;22;20164;-69
2023/04/30 18:40:59;;;;;;;1999.90;999.90;;;;;;;;;;6304647;22;20447;-70
2023/04/30 18:43:44;;;;;;;1999.90;999.90;;;;;;;;;;6304390;22;20206;-68
2023/04/30 18:46:30;;;;;;;1999.90;999.90;;;;;;;;;;6303078;22;20524;-68
2023/04/30 18:49:15;;;;;;;1999.90;999.90;;;;;;;;;;6303355;22;20609;-68
2023/04/30 18:52:00;;;;;;;1999.90;999.90;;;;;;;;;;6303585;22;20200;-68
2023/04/30 18:54:45;;;;;;;1999.90;999.90;;;;;;;;;;6303695;22;20680;-67
2023/04/30 18:57:31;;;;;;;1999.90;999.90;;;;;;;;;;6303206;22;20203;-68
2023/04/30 19:00:16;;;;;;;1999.90;999.90;;;;;;;;;;6302738;22;20214;-68
2023/04/30 19:03:01;;;;;;;1999.90;999.90;;;;;;;;;;6304312;22;20294;-71
2023/04/30 19:05:46;;;;;;;1999.90;999.90;;;;;;;;;;6303444;22;20241;-68
2023/04/30 19:08:31;;;;;;;1999.90;999.90;;;;;;;;;;6303483;22;20207;-68
2023/04/30 19:11:16;;;;;;;1999.90;999.90;;;;;;;;;;6303757;22;20199;-69
2023/04/30 19:14:02;;;;;;;1999.90;999.90;;;;;;;;;;6302099;22;20366;-68
2023/04/30 19:16:47;;;;;;;1999.90;999.90;;;;;;;;;;6302833;22;20164;-67
2023/04/30 19:19:32;;;;;;;1999.90;999.90;;;;;;;;;;6302988;22;20176;-68
2023/04/30 19:22:17;;;;;;;1999.90;999.90;;;;;;;;;;6303992;22;20330;-66
2023/04/30 19:25:02;;;;;;;1999.90;999.90;;;;;;;;;;6303733;22;20163;-66